Time;durP1;ratioP1;P1;durP2;ratioP2;P2;SDS_P1;SDS_P2;PMS_P1;PMS_P2;Temp;Humidity;BMP_temperature;BMP_pressure;BME280_temperature;BME280_humidity;BME280_pressure;Samples;Min_cycle;Max_cycle;Signal;HPM_P1;HPM_P2
2022/01/13 05:56:31;;;;;;;;;;;;;;;;;;2002554;29;1112;-86
2022/01/13 05:57:32;;;;;;;;;;;;;;;;;;1994810;29;1368;-87
2022/01/13 06:00:26;;;;;;;;;;;;;;;;;;1999595;29;1277;-87
2022/01/13 06:03:20;;;;;;;;;;;;;;;;;;2007530;29;1548;-86
2022/01/13 06:04:38;;;;;;;;;;;;;;;;;;2004141;29;1660;-86
2022/01/13 06:05:56;;;;;;;;;;;;;;;;;;2018981;29;1915;-87
2022/01/13 06:07:06;;;;;;;;;;;;;;;;;;2041226;29;1613;-86
2022/01/13 06:08:17;;;;;;;;;;;;;;;;;;2039753;29;1440;-87
2022/01/13 06:09:41;;;;;;;;;;;;;;;;;;2033843;29;1412;-86
2022/01/13 06:10:46;;;;;;;;;;;;;;;;;;2034698;29;1632;-86
2022/01/13 06:11:57;;;;;;;;;;;;;;;;;;2038557;29;1311;-87
2022/01/13 06:13:19;;;;;;;;;;;;;;;;;;2044373;29;1728;-85
2022/01/13 06:14:36;;;;;;;;;;;;;;;;;;2037185;29;1442;-86
2022/01/13 06:15:50;;;;;;;;;;;;;;;;;;2035209;29;1600;-86
2022/01/13 06:17:24;;;;;;;;;;;;;;;;;;2018056;29;1228;-87
2022/01/13 06:20:11;;;;;;;;;;;;;;;;;;;;;
2022/01/13 06:21:27;;;;;;;;;;;;;;;;;;2037994;29;1558;-86
2022/01/13 06:24:09;;;;;;;;;;;;;;;;;;2046529;29;1226;-87
2022/01/13 06:27:16;;;;;;;;;;;;;;;;;;2031174;29;1450;-86
2022/01/13 06:28:55;;;;;;;;;;;;;;;;;;2035297;29;1690;-87
2022/01/13 06:30:44;;;;;;;;;;;;;;;;;;2048914;29;1304;-86
2022/01/13 06:32:12;;;;;;;;;;;;;;;;;;2040597;29;1655;-86
2022/01/13 06:33:42;;;;;;;;;;;;;;;;;;2047827;29;1219;-86
2022/01/13 06:35:14;;;;;;;;;;;;;;;;;;2041478;29;1747;-86
2022/01/13 06:39:31;;;;;;;;;;;;;;;;;;2039961;29;1258;-87
2022/01/13 06:40:40;;;;;;;;;;;;;;;;;;2033842;29;1687;-86
2022/01/13 06:41:53;;;;;;;;;;;;;;;;;;2032344;29;1606;-86
2022/01/13 06:43:17;;;;;;;;;;;;;;;;;;2035633;29;1655;-86
2022/01/13 06:44:49;;;;;;;;;;;;;;;;;;2032500;29;1442;-87
2022/01/13 06:50:12;;;;;;;;;;;;;;;;;;2039355;29;1839;-86
2022/01/13 06:51:23;;;;;;;;;;;;;;;;;;2043985;29;1530;-87
2022/01/13 06:53:13;;;;;;;;;;;;;;;;;;2041416;29;1686;-86
2022/01/13 06:55:07;;;;;;;;;;;;;;;;;;2033634;29;1460;-86
2022/01/13 06:56:56;;;;;;;;;;;;;;;;;;2039846;29;1179;-86
2022/01/13 07:00:12;;;;;;;;;;;;;;;;;;2022020;29;1236;-86
2022/01/13 07:01:35;;;;;;;;;;;;;;;;;;2018070;29;1829;-86
2022/01/13 07:04:46;;;;;;;;;;;;;;;;;;2022293;29;1776;-87
2022/01/13 07:09:51;;;;;;;;;;;;;;;;;;2021671;29;1474;-86
2022/01/13 07:10:57;;;;;;;;;;;;;;;;;;2033540;29;1892;-87
2022/01/13 07:12:02;;;;;;;;;;;;;;;;;;2028142;29;1454;-86
2022/01/13 07:13:11;;;;;;;;;;;;;;;;;;2035394;29;1640;-87
2022/01/13 07:14:20;;;;;;;;;;;;;;;;;;2040763;29;1393;-87
2022/01/13 07:15:35;;;;;;;;;;;;;;;;;;;;;
2022/01/13 07:16:58;;;;;;;;;;;;;;;;;;2042152;29;1435;-86
2022/01/13 07:19:55;;;;;;;;;;;;;;;;;;2026366;29;1492;-86
2022/01/13 07:21:07;;;;;;;;;;;;;;;;;;2039939;29;1479;-87
2022/01/13 07:27:26;;;;;;;;;;;;;;;;;;2001246;29;1727;-87
2022/01/13 07:28:40;;;;;;;;;;;;;;;;;;1994993;29;1703;-87
2022/01/13 07:30:12;;;;;;;;;;;;;;;;;;1990027;29;1399;-87
2022/01/13 07:36:33;;;;;;;;;;;;;;;;;;2009240;29;1170;-87
2022/01/13 07:38:18;;;;;;;;;;;;;;;;;;2010146;29;1795;-86
2022/01/13 07:39:35;;;;;;;;;;;;;;;;;;2034122;29;1255;-86
2022/01/13 07:46:48;;;;;;;;;;;;;;;;;;2028323;29;1899;-86
2022/01/13 07:50:18;;;;;;;;;;;;;;;;;;1988890;29;1817;-86
2022/01/13 07:52:20;;;;;;;;;;;;;;;;;;2002930;29;1652;-85
2022/01/13 08:04:58;;;;;;;;;;;;;;;;;;1981992;30;1027;-87
2022/01/13 08:08:38;;;;;;;;;;;;;;;;;;1980577;29;1263;-86
2022/01/13 08:10:18;;;;;;;;;;;;;;;;;;1986430;29;1329;-86
2022/01/13 08:27:05;;;;;;;;;;;;;;;;;;;;;
2022/01/13 08:35:20;;;;;;;;;;;;;;;;;;2013167;29;1801;-87
2022/01/13 08:36:56;;;;;;;;;;;;;;;;;;2008264;29;1233;-89
2022/01/13 08:40:41;;;;;;;;;;;;;;;;;;2015297;29;1625;-87
2022/01/13 08:42:01;;;;;;;;;;;;;;;;;;2007743;29;1406;-87
2022/01/13 08:45:11;;;;;;;;;;;;;;;;;;2034441;29;1417;-87
2022/01/13 08:50:08;;;;;;;;;;;;;;;;;;2024343;29;1410;-87
2022/01/13 08:58:13;;;;;;;;;;;;;;;;;;2019451;29;1167;-88
2022/01/13 09:01:48;;;;;;;;;;;;;;;;;;2035455;29;1712;-87
2022/01/13 09:05:24;;;;;;;;;;;;;;;;;;2030832;29;1723;-87
2022/01/13 09:07:12;;;;;;;;;;;;;;;;;;2031474;29;1918;-87
2022/01/13 09:26:05;;;;;;;;;;;;;;;;;;1994572;29;1355;-88
2022/01/13 09:31:00;;;;;;;;;;;;;;;;;;1950601;30;1201;-88
2022/01/13 09:39:33;;;;;;;;;;;;;;;;;;2007947;29;1237;-88
2022/01/13 09:46:36;;;;;;;;;;;;;;;;;;2035117;29;1831;-88
2022/01/13 09:48:13;;;;;;;;;;;;;;;;;;2044816;29;1591;-87
2022/01/13 09:49:35;;;;;;;;;;;;;;;;;;2038870;29;1848;-87
2022/01/13 09:52:30;;;;;;;;;;;;;;;;;;2029880;29;1621;-87
2022/01/13 09:54:06;;;;;;;;;;;;;;;;;;2035975;29;1629;-88
2022/01/13 09:55:35;;;;;;;;;;;;;;;;;;2037183;29;1884;-88
2022/01/13 09:59:05;;;;;;;;;;;;;;;;;;2020303;29;1701;-88
2022/01/13 10:00:32;;;;;;;;;;;;;;;;;;2012944;29;1563;-88
2022/01/13 10:01:53;;;;;;;;;;;;;;;;;;2011641;29;1634;-88
2022/01/13 10:05:22;;;;;;;;;;;;;;;;;;2025523;29;1184;-87
2022/01/13 10:08:47;;;;;;;;;;;;;;;;;;2010366;29;1466;-87
2022/01/13 10:10:20;;;;;;;;;;;;;;;;;;2013442;29;1375;-88
2022/01/13 10:11:39;;;;;;;;;;;;;;;;;;2017614;29;1526;-87
2022/01/13 10:16:56;;;;;;;;;;;;;;;;;;2008087;29;1624;-88
2022/01/13 10:21:46;;;;;;;;;;;;;;;;;;2013755;29;1336;-88
2022/01/13 10:23:22;;;;;;;;;;;;;;;;;;2037268;29;1692;-87
2022/01/13 10:24:52;;;;;;;;;;;;;;;;;;2045121;29;1425;-89
2022/01/13 10:26:12;;;;;;;;;;;;;;;;;;2041101;29;1724;-89
2022/01/13 10:27:50;;;;;;;;;;;;;;;;;;2037911;29;1982;-88
2022/01/13 10:30:35;;;;;;;;;;;;;;;;;;2035805;29;1273;-89
2022/01/13 10:32:02;;;;;;;;;;;;;;;;;;2046864;29;1622;-88
2022/01/13 10:33:22;;;;;;;;;;;;;;;;;;2040470;29;1490;-87
2022/01/13 10:36:23;;;;;;;;;;;;;;;;;;2042287;29;1426;-89
2022/01/13 10:37:56;;;;;;;;;;;;;;;;;;2033700;29;1879;-90
2022/01/13 10:39:13;;;;;;;;;;;;;;;;;;2043881;29;1282;-88
2022/01/13 10:40:33;;;;;;;;;;;;;;;;;;2037238;29;1304;-89
2022/01/13 10:42:12;;;;;;;;;;;;;;;;;;2037421;29;1624;-88
2022/01/13 10:45:02;;;;;;;;;;;;;;;;;;2050157;29;1333;-88
2022/01/13 10:46:20;;;;;;;;;;;;;;;;;;2043538;29;1682;-88
2022/01/13 10:47:24;;;;;;;;;;;;;;;;;;2045121;29;1914;-89
2022/01/13 10:48:45;;;;;;;;;;;;;;;;;;2048259;29;1309;-89
2022/01/13 10:50:00;;;;;;;;;;;;;;;;;;2040744;29;1754;-88
2022/01/13 10:52:52;;;;;;;;;;;;;;;;;;2040668;29;1686;-89
2022/01/13 10:54:01;;;;;;;;;;;;;;;;;;2043345;29;1251;-87
2022/01/13 10:55:09;;;;;;;;;;;;;;;;;;2035373;29;1301;-89
2022/01/13 10:56:36;;;;;;;;;;;;;;;;;;2035593;29;1318;-88
2022/01/13 10:57:42;;;;;;;;;;;;;;;;;;2035342;29;1250;-88
2022/01/13 10:58:57;;;;;;;;;;;;;;;;;;2035612;29;1284;-87
2022/01/13 11:00:30;;;;;;;;;;;;;;;;;;2030587;29;1265;-88
2022/01/13 11:01:37;;;;;;;;;;;;;;;;;;2038309;29;1257;-87
2022/01/13 11:02:45;;;;;;;;;;;;;;;;;;2043358;29;1550;-88
2022/01/13 11:03:54;;;;;;;;;;;;;;;;;;2043289;29;1456;-85
2022/01/13 11:05:01;;;;;;;;;;;;;;;;;;2044354;29;1534;-89
2022/01/13 11:06:06;;;;;;;;;;;;;;;;;;2035566;29;1251;-89
2022/01/13 11:07:19;;;;;;;;;;;;;;;;;;2035375;29;1911;-88
2022/01/13 11:08:28;;;;;;;;;;;;;;;;;;2035239;29;1281;-88
2022/01/13 11:09:29;;;;;;;;;;;;;;;;;;2028195;29;1342;-88
2022/01/13 11:10:34;;;;;;;;;;;;;;;;;;2036861;29;1565;-88
2022/01/13 11:11:46;;;;;;;;;;;;;;;;;;2051802;29;831;-88
2022/01/13 11:12:55;;;;;;;;;;;;;;;;;;2051347;29;1452;-88
2022/01/13 11:14:03;;;;;;;;;;;;;;;;;;2035455;29;2029;-88
2022/01/13 11:15:06;;;;;;;;;;;;;;;;;;2036734;29;1546;-87
2022/01/13 11:16:16;;;;;;;;;;;;;;;;;;2034535;29;1877;-88
2022/01/13 11:17:17;;;;;;;;;;;;;;;;;;2039684;29;1397;-86
2022/01/13 11:18:21;;;;;;;;;;;;;;;;;;2034780;29;1570;-88
2022/01/13 11:19:26;;;;;;;;;;;;;;;;;;2027716;29;1241;-88
2022/01/13 11:20:28;;;;;;;;;;;;;;;;;;2032471;29;1362;-87
2022/01/13 11:21:30;;;;;;;;;;;;;;;;;;2041254;29;1621;-88
2022/01/13 11:22:34;;;;;;;;;;;;;;;;;;2041157;29;1980;-87
2022/01/13 11:23:41;;;;;;;;;;;;;;;;;;2051174;29;1565;-88
2022/01/13 11:24:44;;;;;;;;;;;;;;;;;;2035223;29;1302;-88
2022/01/13 11:26:03;;;;;;;;;;;;;;;;;;2027220;29;1445;-87
2022/01/13 11:27:05;;;;;;;;;;;;;;;;;;2037250;29;1964;-87
2022/01/13 11:28:08;;;;;;;;;;;;;;;;;;2038953;29;1540;-87
2022/01/13 11:29:11;;;;;;;;;;;;;;;;;;2027556;29;1254;-87
2022/01/13 11:30:13;;;;;;;;;;;;;;;;;;2039459;29;1299;-87
2022/01/13 11:31:15;;;;;;;;;;;;;;;;;;2042409;29;1850;-88
2022/01/13 11:32:18;;;;;;;;;;;;;;;;;;2035076;29;1570;-87
2022/01/13 11:33:22;;;;;;;;;;;;;;;;;;2042942;29;1794;-87
2022/01/13 11:34:25;;;;;;;;;;;;;;;;;;2035554;29;1202;-88
2022/01/13 11:35:28;;;;;;;;;;;;;;;;;;2035048;29;1389;-87
2022/01/13 11:36:35;;;;;;;;;;;;;;;;;;2040311;29;1279;-88
2022/01/13 11:37:39;;;;;;;;;;;;;;;;;;2040146;29;1620;-90
2022/01/13 11:38:55;;;;;;;;;;;;;;;;;;2043001;29;1420;-89
2022/01/13 11:39:57;;;;;;;;;;;;;;;;;;2044473;29;1573;-88
2022/01/13 11:41:00;;;;;;;;;;;;;;;;;;2049124;29;1997;-88
2022/01/13 11:42:03;;;;;;;;;;;;;;;;;;2045086;29;1237;-88
2022/01/13 11:43:08;;;;;;;;;;;;;;;;;;2041252;29;1389;-88
2022/01/13 11:44:17;;;;;;;;;;;;;;;;;;2037284;29;1578;-88
2022/01/13 11:45:21;;;;;;;;;;;;;;;;;;2035703;29;1493;-88
2022/01/13 11:46:24;;;;;;;;;;;;;;;;;;2034427;29;1745;-88
2022/01/13 11:47:28;;;;;;;;;;;;;;;;;;2037273;29;1919;-88
2022/01/13 11:48:32;;;;;;;;;;;;;;;;;;2034933;29;1766;-87
2022/01/13 11:49:43;;;;;;;;;;;;;;;;;;2031538;29;1860;-87
2022/01/13 11:50:48;;;;;;;;;;;;;;;;;;2036414;29;981;-87
2022/01/13 11:51:57;;;;;;;;;;;;;;;;;;2043448;29;956;-88
2022/01/13 11:52:58;;;;;;;;;;;;;;;;;;2047566;29;1601;-89
2022/01/13 11:54:04;;;;;;;;;;;;;;;;;;2042090;29;1907;-90
2022/01/13 11:55:19;;;;;;;;;;;;;;;;;;2035730;29;1271;-90
2022/01/13 11:56:22;;;;;;;;;;;;;;;;;;2042072;29;1351;-90
2022/01/13 11:57:25;;;;;;;;;;;;;;;;;;2033456;29;1778;-90
2022/01/13 11:58:31;;;;;;;;;;;;;;;;;;2036671;29;1841;-91
2022/01/13 11:59:31;;;;;;;;;;;;;;;;;;2041064;29;1254;-91
2022/01/13 12:00:33;;;;;;;;;;;;;;;;;;2033669;29;1266;-90
2022/01/13 12:01:35;;;;;;;;;;;;;;;;;;2029954;29;1617;-90
2022/01/13 12:02:38;;;;;;;;;;;;;;;;;;2041373;29;1338;-90
2022/01/13 12:03:43;;;;;;;;;;;;;;;;;;2041945;29;1323;-90
2022/01/13 12:05:00;;;;;;;;;;;;;;;;;;2032612;29;1693;-90
2022/01/13 12:06:04;;;;;;;;;;;;;;;;;;2042783;29;1299;-91
2022/01/13 12:07:27;;;;;;;;;;;;;;;;;;2041256;29;1892;-91
2022/01/13 12:08:52;;;;;;;;;;;;;;;;;;2028457;29;1283;-91
2022/01/13 12:09:54;;;;;;;;;;;;;;;;;;2027072;29;1272;-91
2022/01/13 12:10:57;;;;;;;;;;;;;;;;;;2026720;29;1986;-91
2022/01/13 12:11:59;;;;;;;;;;;;;;;;;;2033995;29;1952;-92
2022/01/13 12:13:00;;;;;;;;;;;;;;;;;;2026649;29;1324;-92
2022/01/13 12:14:04;;;;;;;;;;;;;;;;;;2027380;29;1783;-92
2022/01/13 12:15:18;;;;;;;;;;;;;;;;;;2034417;29;1364;-92
2022/01/13 12:16:40;;;;;;;;;;;;;;;;;;2034636;29;1242;-91
2022/01/13 12:17:45;;;;;;;;;;;;;;;;;;2036338;29;1316;-92
2022/01/13 12:18:59;;;;;;;;;;;;;;;;;;2034853;29;1323;-90
2022/01/13 12:20:03;;;;;;;;;;;;;;;;;;2035078;29;2064;-91
2022/01/13 12:21:22;;;;;;;;;;;;;;;;;;2041738;29;1272;-91
2022/01/13 12:22:40;;;;;;;;;;;;;;;;;;2040752;29;1734;-90
2022/01/13 12:23:41;;;;;;;;;;;;;;;;;;2036398;29;1370;-90
2022/01/13 12:24:46;;;;;;;;;;;;;;;;;;2042707;29;1299;-92
2022/01/13 12:25:58;;;;;;;;;;;;;;;;;;2048943;29;1737;-92
2022/01/13 12:27:03;;;;;;;;;;;;;;;;;;2041336;29;1515;-92
2022/01/13 12:28:14;;;;;;;;;;;;;;;;;;2035999;29;1907;-91
2022/01/13 12:29:18;;;;;;;;;;;;;;;;;;2041921;29;1392;-90
2022/01/13 12:30:25;;;;;;;;;;;;;;;;;;2034435;29;1570;-91
2022/01/13 12:31:30;;;;;;;;;;;;;;;;;;2041853;29;1618;-90
2022/01/13 12:32:37;;;;;;;;;;;;;;;;;;2047306;29;1879;-90
2022/01/13 12:33:40;;;;;;;;;;;;;;;;;;2041851;29;1423;-90
2022/01/13 12:34:50;;;;;;;;;;;;;;;;;;2029663;29;1876;-91
2022/01/13 12:35:51;;;;;;;;;;;;;;;;;;2027315;29;1207;-92
2022/01/13 12:36:56;;;;;;;;;;;;;;;;;;2041780;29;1778;-91
2022/01/13 12:38:00;;;;;;;;;;;;;;;;;;2042595;29;1269;-91
2022/01/13 12:39:03;;;;;;;;;;;;;;;;;;2034960;29;1801;-92
2022/01/13 12:40:10;;;;;;;;;;;;;;;;;;2043095;29;1758;-91
2022/01/13 12:41:16;;;;;;;;;;;;;;;;;;2042224;29;1334;-89
2022/01/13 12:42:20;;;;;;;;;;;;;;;;;;2042106;29;1375;-88
2022/01/13 12:43:35;;;;;;;;;;;;;;;;;;2041902;29;1798;-89
2022/01/13 12:45:57;;;;;;;;;;;;;;;;;;2035660;29;1327;-89
2022/01/13 12:46:57;;;;;;;;;;;;;;;;;;2033213;29;1957;-91
2022/01/13 12:48:01;;;;;;;;;;;;;;;;;;2040629;29;1976;-90
2022/01/13 12:49:02;;;;;;;;;;;;;;;;;;2042296;29;1738;-90
2022/01/13 12:50:11;;;;;;;;;;;;;;;;;;2041927;29;1224;-90
2022/01/13 12:51:13;;;;;;;;;;;;;;;;;;2042432;29;1345;-92
2022/01/13 12:52:20;;;;;;;;;;;;;;;;;;2042159;29;1187;-92
2022/01/13 12:53:25;;;;;;;;;;;;;;;;;;2034542;29;1829;-92
2022/01/13 12:54:26;;;;;;;;;;;;;;;;;;2042315;29;1210;-92
2022/01/13 12:55:27;;;;;;;;;;;;;;;;;;2038636;29;1888;-92
2022/01/13 12:56:30;;;;;;;;;;;;;;;;;;2042090;29;1355;-91
2022/01/13 12:57:30;;;;;;;;;;;;;;;;;;2034483;29;1238;-91
2022/01/13 12:58:33;;;;;;;;;;;;;;;;;;2033220;29;1626;-91
2022/01/13 12:59:34;;;;;;;;;;;;;;;;;;2042333;29;1317;-92
2022/01/13 13:00:37;;;;;;;;;;;;;;;;;;2034368;29;1359;-91
2022/01/13 13:01:39;;;;;;;;;;;;;;;;;;2030611;29;1932;-92
2022/01/13 13:02:49;;;;;;;;;;;;;;;;;;2034189;29;1743;-91
2022/01/13 13:03:58;;;;;;;;;;;;;;;;;;2039750;29;1770;-91
2022/01/13 13:04:59;;;;;;;;;;;;;;;;;;2041917;29;1385;-91
2022/01/13 13:06:01;;;;;;;;;;;;;;;;;;2041535;29;1607;-90
2022/01/13 13:07:06;;;;;;;;;;;;;;;;;;2047636;29;1624;-89
2022/01/13 13:08:10;;;;;;;;;;;;;;;;;;2040603;29;1966;-90
2022/01/13 13:09:13;;;;;;;;;;;;;;;;;;2034079;29;1626;-91
2022/01/13 13:10:14;;;;;;;;;;;;;;;;;;2032561;29;1639;-91
2022/01/13 13:11:17;;;;;;;;;;;;;;;;;;2042276;29;1679;-91
2022/01/13 13:12:26;;;;;;;;;;;;;;;;;;2032724;29;1421;-92
2022/01/13 13:13:31;;;;;;;;;;;;;;;;;;2035861;29;1327;-91
2022/01/13 13:15:38;;;;;;;;;;;;;;;;;;2041292;29;1441;-91
2022/01/13 13:16:01;;;;;;;;;;;;;;;;;;2044013;29;1855;-90
2022/01/13 13:17:02;;;;;;;;;;;;;;;;;;2045544;29;1269;-91
2022/01/13 13:18:06;;;;;;;;;;;;;;;;;;2034114;29;1969;-89
2022/01/13 13:19:11;;;;;;;;;;;;;;;;;;2033354;29;1459;-89
2022/01/13 13:20:23;;;;;;;;;;;;;;;;;;2035938;29;1716;-90
2022/01/13 13:21:31;;;;;;;;;;;;;;;;;;2043150;29;1328;-89
2022/01/13 13:22:43;;;;;;;;;;;;;;;;;;2041922;29;1350;-89
2022/01/13 13:23:46;;;;;;;;;;;;;;;;;;2043175;29;1401;-89
2022/01/13 13:24:47;;;;;;;;;;;;;;;;;;2041380;29;1400;-89
2022/01/13 13:25:51;;;;;;;;;;;;;;;;;;2026710;29;1335;-87
2022/01/13 13:26:53;;;;;;;;;;;;;;;;;;2026295;29;1671;-89
2022/01/13 13:27:53;;;;;;;;;;;;;;;;;;2031173;29;1969;-89
2022/01/13 13:28:55;;;;;;;;;;;;;;;;;;2041445;29;1188;-88
2022/01/13 13:29:56;;;;;;;;;;;;;;;;;;2040854;29;1307;-89
2022/01/13 13:30:59;;;;;;;;;;;;;;;;;;2034020;29;1260;-88
2022/01/13 13:32:02;;;;;;;;;;;;;;;;;;2034062;29;1440;-89
2022/01/13 13:33:02;;;;;;;;;;;;;;;;;;2032894;29;1959;-90
2022/01/13 13:34:08;;;;;;;;;;;;;;;;;;2035601;29;1463;-90
2022/01/13 13:35:14;;;;;;;;;;;;;;;;;;2032787;29;1331;-90
2022/01/13 13:36:19;;;;;;;;;;;;;;;;;;2042042;29;1311;-89
2022/01/13 13:37:20;;;;;;;;;;;;;;;;;;2042557;29;1327;-90
2022/01/13 13:38:21;;;;;;;;;;;;;;;;;;2032591;29;1803;-85
2022/01/13 13:39:26;;;;;;;;;;;;;;;;;;2041635;29;1406;-90
2022/01/13 13:40:27;;;;;;;;;;;;;;;;;;2033693;29;1515;-88
2022/01/13 13:41:30;;;;;;;;;;;;;;;;;;2034026;29;1382;-89
2022/01/13 13:42:34;;;;;;;;;;;;;;;;;;2033891;29;1351;-87
2022/01/13 13:43:35;;;;;;;;;;;;;;;;;;2032350;29;1353;-89
2022/01/13 13:44:38;;;;;;;;;;;;;;;;;;2029542;29;1319;-88
2022/01/13 13:45:39;;;;;;;;;;;;;;;;;;2042146;29;1398;-88
2022/01/13 13:46:41;;;;;;;;;;;;;;;;;;2042540;29;1350;-89
2022/01/13 13:47:53;;;;;;;;;;;;;;;;;;2049423;29;1675;-89
2022/01/13 13:48:56;;;;;;;;;;;;;;;;;;2040025;29;1979;-90
2022/01/13 13:49:59;;;;;;;;;;;;;;;;;;2033480;29;1452;-85
2022/01/13 13:51:03;;;;;;;;;;;;;;;;;;2042863;29;1889;-86
2022/01/13 13:52:06;;;;;;;;;;;;;;;;;;2041599;29;1316;-86
2022/01/13 13:53:08;;;;;;;;;;;;;;;;;;2040558;29;1370;-87
2022/01/13 13:54:14;;;;;;;;;;;;;;;;;;2043048;29;1208;-85
2022/01/13 13:55:17;;;;;;;;;;;;;;;;;;2040450;29;1271;-84
2022/01/13 13:56:19;;;;;;;;;;;;;;;;;;2040389;29;1912;-85
2022/01/13 13:57:23;;;;;;;;;;;;;;;;;;2049259;28;795;-85
2022/01/13 13:58:24;;;;;;;;;;;;;;;;;;2041175;29;1325;-86
2022/01/13 13:59:27;;;;;;;;;;;;;;;;;;2033164;29;1973;-86
2022/01/13 14:00:29;;;;;;;;;;;;;;;;;;2042753;29;1348;-86
2022/01/13 14:01:30;;;;;;;;;;;;;;;;;;2034067;29;1568;-86
2022/01/13 14:02:36;;;;;;;;;;;;;;;;;;2034021;29;1358;-86
2022/01/13 14:03:39;;;;;;;;;;;;;;;;;;2034760;29;1505;-86
2022/01/13 14:04:42;;;;;;;;;;;;;;;;;;2034029;29;1495;-86
2022/01/13 14:05:44;;;;;;;;;;;;;;;;;;2041227;29;1864;-86
2022/01/13 14:06:48;;;;;;;;;;;;;;;;;;2041762;29;1562;-86
2022/01/13 14:07:51;;;;;;;;;;;;;;;;;;2034444;29;1250;-86
2022/01/13 14:08:55;;;;;;;;;;;;;;;;;;2038006;29;2019;-86
2022/01/13 14:09:58;;;;;;;;;;;;;;;;;;2041204;29;1365;-86
2022/01/13 14:11:08;;;;;;;;;;;;;;;;;;2041197;29;818;-86
2022/01/13 14:12:13;;;;;;;;;;;;;;;;;;2034144;29;1329;-85
2022/01/13 14:13:17;;;;;;;;;;;;;;;;;;2025707;29;1328;-85
2022/01/13 14:14:19;;;;;;;;;;;;;;;;;;2028483;29;1285;-85
2022/01/13 14:15:23;;;;;;;;;;;;;;;;;;2041640;29;818;-86
2022/01/13 14:16:32;;;;;;;;;;;;;;;;;;2041066;29;1174;-86
2022/01/13 14:17:35;;;;;;;;;;;;;;;;;;2042656;29;1286;-86
2022/01/13 14:18:39;;;;;;;;;;;;;;;;;;2041466;29;1340;-86
2022/01/13 14:19:55;;;;;;;;;;;;;;;;;;2034146;29;1207;-86
2022/01/13 14:20:58;;;;;;;;;;;;;;;;;;2044863;29;1391;-86
2022/01/13 14:22:02;;;;;;;;;;;;;;;;;;2041523;29;1552;-86
2022/01/13 14:23:09;;;;;;;;;;;;;;;;;;2041890;29;1273;-85
2022/01/13 14:24:10;;;;;;;;;;;;;;;;;;2048497;28;1285;-86
2022/01/13 14:25:12;;;;;;;;;;;;;;;;;;2041922;29;1241;-85
2022/01/13 14:26:16;;;;;;;;;;;;;;;;;;2037238;29;1590;-86
2022/01/13 14:27:17;;;;;;;;;;;;;;;;;;2033970;29;1249;-86
2022/01/13 14:28:25;;;;;;;;;;;;;;;;;;2045245;29;1519;-87
2022/01/13 14:29:25;;;;;;;;;;;;;;;;;;2035253;29;1929;-88
2022/01/13 14:30:31;;;;;;;;;;;;;;;;;;2041992;29;1362;-87
2022/01/13 14:31:36;;;;;;;;;;;;;;;;;;2039045;29;1490;-86
2022/01/13 14:32:38;;;;;;;;;;;;;;;;;;2038817;29;1931;-87
2022/01/13 14:33:58;;;;;;;;;;;;;;;;;;2034653;29;1413;-86
2022/01/13 14:35:31;;;;;;;;;;;;;;;;;;2040930;29;1998;-89
2022/01/13 14:37:07;;;;;;;;;;;;;;;;;;2056049;29;606;-87
2022/01/13 14:38:10;;;;;;;;;;;;;;;;;;2049745;29;1875;-85
2022/01/13 14:39:13;;;;;;;;;;;;;;;;;;2041468;29;1702;-87
2022/01/13 14:40:15;;;;;;;;;;;;;;;;;;2050525;29;1232;-86
2022/01/13 14:41:34;;;;;;;;;;;;;;;;;;2039637;29;2007;-87
2022/01/13 14:42:36;;;;;;;;;;;;;;;;;;2035461;29;1263;-91
2022/01/13 14:43:37;;;;;;;;;;;;;;;;;;2044632;29;1203;-87
2022/01/13 14:44:39;;;;;;;;;;;;;;;;;;2025572;29;1261;-87
2022/01/13 14:45:40;;;;;;;;;;;;;;;;;;2026532;29;1536;-86
2022/01/13 14:46:43;;;;;;;;;;;;;;;;;;2039930;29;1090;-86
2022/01/13 14:47:44;;;;;;;;;;;;;;;;;;2041768;29;1182;-86
2022/01/13 14:48:45;;;;;;;;;;;;;;;;;;2040594;29;1942;-87
2022/01/13 14:49:47;;;;;;;;;;;;;;;;;;2031910;29;1325;-88
2022/01/13 14:50:48;;;;;;;;;;;;;;;;;;2038337;29;1331;-88
2022/01/13 14:51:50;;;;;;;;;;;;;;;;;;2046463;29;931;-86
2022/01/13 14:52:53;;;;;;;;;;;;;;;;;;2036144;29;1195;-90
2022/01/13 14:53:54;;;;;;;;;;;;;;;;;;2045078;29;2102;-88
2022/01/13 14:54:56;;;;;;;;;;;;;;;;;;2042231;29;1376;-86
2022/01/13 14:55:56;;;;;;;;;;;;;;;;;;2034661;29;1472;-87
2022/01/13 14:57:00;;;;;;;;;;;;;;;;;;2033973;29;2040;-87
2022/01/13 14:58:03;;;;;;;;;;;;;;;;;;2044904;29;1258;-87
2022/01/13 14:59:08;;;;;;;;;;;;;;;;;;2042404;29;1296;-85
2022/01/13 15:00:11;;;;;;;;;;;;;;;;;;2041749;29;1279;-87
2022/01/13 15:02:48;;;;;;;;;;;;;;;;;;2036480;29;1799;-91
2022/01/13 15:03:51;;;;;;;;;;;;;;;;;;2034751;29;1441;-91
2022/01/13 15:04:52;;;;;;;;;;;;;;;;;;2042642;29;1323;-89
2022/01/13 15:05:54;;;;;;;;;;;;;;;;;;2041292;29;1745;-92
2022/01/13 15:06:56;;;;;;;;;;;;;;;;;;2045438;29;1311;-91
2022/01/13 15:08:11;;;;;;;;;;;;;;;;;;2041889;29;1547;-88
2022/01/13 15:09:14;;;;;;;;;;;;;;;;;;2073447;23;1978;-96
2022/01/13 15:10:17;;;;;;;;;;;;;;;;;;2047795;29;1343;-96
2022/01/13 15:11:22;;;;;;;;;;;;;;;;;;2040161;29;1332;-92
2022/01/13 15:12:26;;;;;;;;;;;;;;;;;;2101152;23;2118;-94
2022/01/13 15:13:28;;;;;;;;;;;;;;;;;;2042493;29;1650;-94
2022/01/13 15:14:30;;;;;;;;;;;;;;;;;;2041975;29;1806;-93
2022/01/13 15:15:31;;;;;;;;;;;;;;;;;;2031206;29;1678;-94
2022/01/13 15:18:29;;;;;;;;;;;;;;;;;;2040692;29;1211;-93
2022/01/13 15:19:57;;;;;;;;;;;;;;;;;;2053246;29;1246;-92
2022/01/13 15:21:17;;;;;;;;;;;;;;;;;;2047012;29;1176;-94
